sensor_id;sensor_type;location;lat;lon;timestamp;pressure;altitude;pressure_sealevel;temperature;humidity
10518;BME280;5307;42.548;22.968;2023-03-03T00:02:06;93833.38;;;4.77;100.00
10518;BME280;5307;42.548;22.968;2023-03-03T00:04:34;93830.31;;;4.75;100.00
10518;BME280;5307;42.548;22.968;2023-03-03T00:07:01;93825.97;;;4.82;100.00
10518;BME280;5307;42.548;22.968;2023-03-03T00:09:28;93826.75;;;4.82;100.00
10518;BME280;5307;42.548;22.968;2023-03-03T00:11:56;93827.53;;;4.56;100.00
10518;BME280;5307;42.548;22.968;2023-03-03T00:14:28;93819.97;;;4.70;100.00
10518;BME280;5307;42.548;22.968;2023-03-03T00:16:55;93817.34;;;4.63;100.00
10518;BME280;5307;42.548;22.968;2023-03-03T00:19:22;93803.91;;;4.60;100.00
10518;BME280;5307;42.548;22.968;2023-03-03T00:21:52;93819.81;;;4.81;100.00
10518;BME280;5307;42.548;22.968;2023-03-03T00:24:24;93821.91;;;4.43;100.00
10518;BME280;5307;42.548;22.968;2023-03-03T00:27:00;93812.53;;;4.51;100.00
10518;BME280;5307;42.548;22.968;2023-03-03T00:29:30;93820.19;;;4.56;100.00
10518;BME280;5307;42.548;22.968;2023-03-03T00:32:15;93807.84;;;4.55;100.00
10518;BME280;5307;42.548;22.968;2023-03-03T00:34:43;93807.50;;;4.50;100.00
10518;BME280;5307;42.548;22.968;2023-03-03T00:37:28;93808.44;;;4.66;100.00
10518;BME280;5307;42.548;22.968;2023-03-03T00:40:10;93807.38;;;4.84;100.00
10518;BME280;5307;42.548;22.968;2023-03-03T00:42:39;93803.72;;;4.70;100.00
10518;BME280;5307;42.548;22.968;2023-03-03T00:45:21;93801.19;;;4.60;100.00
10518;BME280;5307;42.548;22.968;2023-03-03T00:47:49;93793.00;;;4.63;100.00
10518;BME280;5307;42.548;22.968;2023-03-03T00:50:32;93784.56;;;4.61;100.00
10518;BME280;5307;42.548;22.968;2023-03-03T00:53:03;93799.25;;;4.60;100.00
10518;BME280;5307;42.548;22.968;2023-03-03T00:55:31;93782.09;;;4.70;100.00
10518;BME280;5307;42.548;22.968;2023-03-03T00:57:58;93782.56;;;4.65;100.00
10518;BME280;5307;42.548;22.968;2023-03-03T01:00:24;93790.28;;;4.67;100.00
10518;BME280;5307;42.548;22.968;2023-03-03T01:02:51;93778.31;;;4.64;100.00
10518;BME280;5307;42.548;22.968;2023-03-03T01:05:19;93775.25;;;4.62;100.00
10518;BME280;5307;42.548;22.968;2023-03-03T01:07:46;93778.16;;;4.75;100.00
10518;BME280;5307;42.548;22.968;2023-03-03T01:10:14;93777.38;;;4.74;100.00
10518;BME280;5307;42.548;22.968;2023-03-03T01:12:42;93777.03;;;4.72;100.00
10518;BME280;5307;42.548;22.968;2023-03-03T01:15:10;93780.91;;;4.71;100.00
10518;BME280;5307;42.548;22.968;2023-03-03T01:17:38;93778.91;;;4.75;100.00
10518;BME280;5307;42.548;22.968;2023-03-03T01:20:08;93775.84;;;4.73;100.00
10518;BME280;5307;42.548;22.968;2023-03-03T01:22:35;93778.63;;;4.70;100.00
10518;BME280;5307;42.548;22.968;2023-03-03T01:25:02;93769.75;;;4.69;100.00
10518;BME280;5307;42.548;22.968;2023-03-03T01:27:30;93772.13;;;4.64;100.00
10518;BME280;5307;42.548;22.968;2023-03-03T01:29:57;93772.09;;;4.67;100.00
10518;BME280;5307;42.548;22.968;2023-03-03T01:32:25;93768.31;;;4.38;100.00
10518;BME280;5307;42.548;22.968;2023-03-03T01:34:52;93769.59;;;4.30;100.00
10518;BME280;5307;42.548;22.968;2023-03-03T01:37:19;93769.28;;;4.51;100.00
10518;BME280;5307;42.548;22.968;2023-03-03T01:39:50;93767.28;;;4.55;100.00
10518;BME280;5307;42.548;22.968;2023-03-03T01:42:17;93772.69;;;4.55;100.00
10518;BME280;5307;42.548;22.968;2023-03-03T01:44:46;93773.13;;;4.50;100.00
10518;BME280;5307;42.548;22.968;2023-03-03T01:47:15;93760.00;;;4.52;100.00
10518;BME280;5307;42.548;22.968;2023-03-03T01:49:46;93762.72;;;4.48;100.00
10518;BME280;5307;42.548;22.968;2023-03-03T01:52:20;93766.25;;;4.45;100.00
10518;BME280;5307;42.548;22.968;2023-03-03T01:54:55;93764.72;;;4.44;100.00
10518;BME280;5307;42.548;22.968;2023-03-03T01:57:26;93757.28;;;4.52;100.00
10518;BME280;5307;42.548;22.968;2023-03-03T01:59:57;93756.69;;;4.41;100.00
10518;BME280;5307;42.548;22.968;2023-03-03T02:02:26;93759.25;;;4.48;100.00
10518;BME280;5307;42.548;22.968;2023-03-03T02:04:54;93757.84;;;4.40;100.00
10518;BME280;5307;42.548;22.968;2023-03-03T02:07:22;93761.72;;;4.39;100.00
10518;BME280;5307;42.548;22.968;2023-03-03T02:09:54;93754.31;;;4.43;100.00
10518;BME280;5307;42.548;22.968;2023-03-03T02:12:28;93763.25;;;4.40;100.00
10518;BME280;5307;42.548;22.968;2023-03-03T02:14:58;93761.72;;;4.39;100.00
10518;BME280;5307;42.548;22.968;2023-03-03T02:17:25;93752.81;;;4.42;100.00
10518;BME280;5307;42.548;22.968;2023-03-03T02:19:57;93753.56;;;4.42;100.00
10518;BME280;5307;42.548;22.968;2023-03-03T02:22:33;93748.16;;;4.42;100.00
10518;BME280;5307;42.548;22.968;2023-03-03T02:25:05;93743.56;;;4.39;100.00
10518;BME280;5307;42.548;22.968;2023-03-03T02:27:35;93738.59;;;4.38;100.00
10518;BME280;5307;42.548;22.968;2023-03-03T02:30:14;93737.84;;;4.10;100.00
10518;BME280;5307;42.548;22.968;2023-03-03T02:32:41;93734.19;;;4.21;100.00
10518;BME280;5307;42.548;22.968;2023-03-03T02:35:29;93740.25;;;4.28;100.00
10518;BME280;5307;42.548;22.968;2023-03-03T02:38:01;93740.63;;;4.03;100.00
10518;BME280;5307;42.548;22.968;2023-03-03T02:40:33;93742.56;;;4.30;100.00
10518;BME280;5307;42.548;22.968;2023-03-03T02:43:04;93740.91;;;4.36;100.00
10518;BME280;5307;42.548;22.968;2023-03-03T02:45:32;93742.69;;;4.23;100.00
10518;BME280;5307;42.548;22.968;2023-03-03T02:47:59;93737.72;;;4.17;100.00
10518;BME280;5307;42.548;22.968;2023-03-03T02:50:26;93743.03;;;4.25;100.00
10518;BME280;5307;42.548;22.968;2023-03-03T02:52:53;93740.69;;;4.27;100.00
10518;BME280;5307;42.548;22.968;2023-03-03T02:55:19;93737.72;;;4.17;100.00
10518;BME280;5307;42.548;22.968;2023-03-03T02:57:46;93744.66;;;4.18;100.00
10518;BME280;5307;42.548;22.968;2023-03-03T03:00:15;93741.94;;;4.18;100.00
10518;BME280;5307;42.548;22.968;2023-03-03T03:02:41;93743.53;;;4.16;100.00
10518;BME280;5307;42.548;22.968;2023-03-03T03:05:08;93743.81;;;4.22;100.00
10518;BME280;5307;42.548;22.968;2023-03-03T03:07:35;93744.97;;;4.24;100.00
10518;BME280;5307;42.548;22.968;2023-03-03T03:10:02;93741.72;;;4.33;100.00
10518;BME280;5307;42.548;22.968;2023-03-03T03:12:29;93749.00;;;4.12;100.00
10518;BME280;5307;42.548;22.968;2023-03-03T03:14:57;93745.56;;;3.81;100.00
10518;BME280;5307;42.548;22.968;2023-03-03T03:17:25;93740.13;;;4.12;100.00
10518;BME280;5307;42.548;22.968;2023-03-03T03:19:52;93742.78;;;4.15;100.00
10518;BME280;5307;42.548;22.968;2023-03-03T03:22:19;93738.13;;;4.16;100.00
10518;BME280;5307;42.548;22.968;2023-03-03T03:24:45;93734.81;;;4.05;100.00
10518;BME280;5307;42.548;22.968;2023-03-03T03:27:12;93731.91;;;4.19;100.00
10518;BME280;5307;42.548;22.968;2023-03-03T03:29:40;93734.50;;;3.99;100.00
10518;BME280;5307;42.548;22.968;2023-03-03T03:32:07;93733.59;;;4.09;100.00
10518;BME280;5307;42.548;22.968;2023-03-03T03:34:35;93725.94;;;4.04;100.00
10518;BME280;5307;42.548;22.968;2023-03-03T03:37:02;93732.44;;;4.10;100.00
10518;BME280;5307;42.548;22.968;2023-03-03T03:39:28;93734.03;;;4.04;100.00
10518;BME280;5307;42.548;22.968;2023-03-03T03:41:55;93719.16;;;3.93;100.00
10518;BME280;5307;42.548;22.968;2023-03-03T03:44:22;93729.81;;;4.03;100.00
10518;BME280;5307;42.548;22.968;2023-03-03T03:46:49;93727.59;;;3.98;100.00
10518;BME280;5307;42.548;22.968;2023-03-03T03:49:16;93730.06;;;4.12;100.00
10518;BME280;5307;42.548;22.968;2023-03-03T03:51:45;93716.31;;;4.03;100.00
10518;BME280;5307;42.548;22.968;2023-03-03T03:54:11;93720.38;;;3.88;100.00
10518;BME280;5307;42.548;22.968;2023-03-03T03:56:38;93723.00;;;3.95;100.00
10518;BME280;5307;42.548;22.968;2023-03-03T03:59:05;93729.81;;;4.03;100.00
10518;BME280;5307;42.548;22.968;2023-03-03T04:01:32;93725.72;;;3.92;100.00
10518;BME280;5307;42.548;22.968;2023-03-03T04:03:59;93727.25;;;3.93;100.00
10518;BME280;5307;42.548;22.968;2023-03-03T04:06:26;93729.09;;;3.99;100.00
10518;BME280;5307;42.548;22.968;2023-03-03T04:08:54;93722.88;;;4.02;100.00
10518;BME280;5307;42.548;22.968;2023-03-03T04:11:21;93725.31;;;3.93;100.00
10518;BME280;5307;42.548;22.968;2023-03-03T04:13:47;93715.19;;;4.01;100.00
10518;BME280;5307;42.548;22.968;2023-03-03T04:16:14;93725.13;;;4.07;100.00
10518;BME280;5307;42.548;22.968;2023-03-03T04:18:41;93728.69;;;4.01;100.00
10518;BME280;5307;42.548;22.968;2023-03-03T04:21:11;93719.47;;;3.98;100.00
10518;BME280;5307;42.548;22.968;2023-03-03T04:23:38;93734.38;;;4.10;100.00
10518;BME280;5307;42.548;22.968;2023-03-03T04:26:06;93728.59;;;4.08;100.00
10518;BME280;5307;42.548;22.968;2023-03-03T04:28:33;93733.81;;;3.95;100.00
10518;BME280;5307;42.548;22.968;2023-03-03T04:31:00;93727.94;;;4.00;100.00
10518;BME280;5307;42.548;22.968;2023-03-03T04:33:27;93729.16;;;3.96;100.00
10518;BME280;5307;42.548;22.968;2023-03-03T04:35:54;93727.63;;;3.95;100.00
10518;BME280;5307;42.548;22.968;2023-03-03T04:38:21;93734.56;;;3.96;100.00
10518;BME280;5307;42.548;22.968;2023-03-03T04:40:47;93730.72;;;3.93;100.00
10518;BME280;5307;42.548;22.968;2023-03-03T04:43:28;93726.13;;;3.90;100.00
10518;BME280;5307;42.548;22.968;2023-03-03T04:45:55;93730.34;;;3.95;100.00
10518;BME280;5307;42.548;22.968;2023-03-03T04:48:21;93737.28;;;3.96;100.00
10518;BME280;5307;42.548;22.968;2023-03-03T04:50:48;93727.03;;;3.83;100.00
10518;BME280;5307;42.548;22.968;2023-03-03T04:53:15;93730.47;;;3.84;100.00
10518;BME280;5307;42.548;22.968;2023-03-03T04:55:42;93727.03;;;3.80;100.00
10518;BME280;5307;42.548;22.968;2023-03-03T04:58:09;93740.88;;;3.85;100.00
10518;BME280;5307;42.548;22.968;2023-03-03T05:00:37;93743.13;;;3.91;100.00
10518;BME280;5307;42.548;22.968;2023-03-03T05:03:04;93740.94;;;3.82;100.00
10518;BME280;5307;42.548;22.968;2023-03-03T05:05:30;93738.09;;;3.62;100.00
10518;BME280;5307;42.548;22.968;2023-03-03T05:07:57;93739.94;;;3.69;100.00
10518;BME280;5307;42.548;22.968;2023-03-03T05:10:24;93742.91;;;3.78;100.00
10518;BME280;5307;42.548;22.968;2023-03-03T05:12:51;93742.13;;;3.77;100.00
10518;BME280;5307;42.548;22.968;2023-03-03T05:15:18;93746.38;;;3.78;100.00
10518;BME280;5307;42.548;22.968;2023-03-03T05:17:46;93744.81;;;3.81;100.00
10518;BME280;5307;42.548;22.968;2023-03-03T05:20:13;93731.69;;;3.79;100.00
10518;BME280;5307;42.548;22.968;2023-03-03T05:22:40;93745.25;;;3.76;100.00
10518;BME280;5307;42.548;22.968;2023-03-03T05:25:07;93747.81;;;3.86;100.00
10518;BME280;5307;42.548;22.968;2023-03-03T05:27:35;93750.56;;;3.83;100.00
10518;BME280;5307;42.548;22.968;2023-03-03T05:30:02;93745.94;;;3.80;100.00
10518;BME280;5307;42.548;22.968;2023-03-03T05:32:29;93747.59;;;3.74;100.00
10518;BME280;5307;42.548;22.968;2023-03-03T05:34:58;93745.56;;;3.81;100.00
10518;BME280;5307;42.548;22.968;2023-03-03T05:37:25;93751.53;;;3.66;100.00
10518;BME280;5307;42.548;22.968;2023-03-03T05:39:52;93745.44;;;3.62;100.00
10518;BME280;5307;42.548;22.968;2023-03-03T05:42:19;93752.75;;;3.61;100.00
10518;BME280;5307;42.548;22.968;2023-03-03T05:44:46;93752.75;;;3.61;100.00
10518;BME280;5307;42.548;22.968;2023-03-03T05:47:13;93753.13;;;3.63;100.00
10518;BME280;5307;42.548;22.968;2023-03-03T05:49:39;93753.44;;;3.69;100.00
10518;BME280;5307;42.548;22.968;2023-03-03T05:52:08;93753.03;;;3.70;100.00
10518;BME280;5307;42.548;22.968;2023-03-03T05:54:35;93749.97;;;3.68;100.00
10518;BME280;5307;42.548;22.968;2023-03-03T05:57:02;93760.81;;;3.65;100.00
10518;BME280;5307;42.548;22.968;2023-03-03T05:59:29;93766.53;;;3.70;100.00
10518;BME280;5307;42.548;22.968;2023-03-03T06:01:55;93758.44;;;3.40;100.00
10518;BME280;5307;42.548;22.968;2023-03-03T06:04:22;93762.84;;;3.57;100.00
10518;BME280;5307;42.548;22.968;2023-03-03T06:06:49;93765.03;;;3.66;100.00
10518;BME280;5307;42.548;22.968;2023-03-03T06:09:17;93765.63;;;3.50;100.00
10518;BME280;5307;42.548;22.968;2023-03-03T06:11:45;93755.06;;;3.63;100.00
10518;BME280;5307;42.548;22.968;2023-03-03T06:14:11;93762.44;;;3.58;100.00
10518;BME280;5307;42.548;22.968;2023-03-03T06:16:38;93770.09;;;3.64;100.00
10518;BME280;5307;42.548;22.968;2023-03-03T06:19:05;93768.59;;;3.59;100.00
10518;BME280;5307;42.548;22.968;2023-03-03T06:21:32;93769.00;;;3.57;100.00
10518;BME280;5307;42.548;22.968;2023-03-03T06:23:58;93770.81;;;3.68;100.00
10518;BME280;5307;42.548;22.968;2023-03-03T06:26:26;93770.50;;;3.62;100.00
10518;BME280;5307;42.548;22.968;2023-03-03T06:28:54;93779.81;;;3.57;100.00
10518;BME280;5307;42.548;22.968;2023-03-03T06:31:20;93782.59;;;3.50;100.00
10518;BME280;5307;42.548;22.968;2023-03-03T06:33:47;93778.63;;;3.58;100.00
10518;BME280;5307;42.548;22.968;2023-03-03T06:36:16;93774.38;;;3.61;100.00
10518;BME280;5307;42.548;22.968;2023-03-03T06:38:43;93773.69;;;3.53;100.00
10518;BME280;5307;42.548;22.968;2023-03-03T06:41:10;93785.03;;;3.72;100.00
10518;BME280;5307;42.548;22.968;2023-03-03T06:43:38;93779.09;;;3.53;100.00
10518;BME280;5307;42.548;22.968;2023-03-03T06:46:05;93788.69;;;3.58;100.00
10518;BME280;5307;42.548;22.968;2023-03-03T06:48:32;93783.81;;;3.46;100.00
10518;BME280;5307;42.548;22.968;2023-03-03T06:51:00;93789.97;;;3.46;100.00
10518;BME280;5307;42.548;22.968;2023-03-03T06:53:27;93790.69;;;3.50;100.00
10518;BME280;5307;42.548;22.968;2023-03-03T06:55:57;93795.69;;;3.52;100.00
10518;BME280;5307;42.548;22.968;2023-03-03T06:58:25;93783.44;;;3.10;100.00
10518;BME280;5307;42.548;22.968;2023-03-03T07:00:55;93791.66;;;3.33;100.00
10518;BME280;5307;42.548;22.968;2023-03-03T07:03:24;93795.28;;;3.53;100.00
10518;BME280;5307;42.548;22.968;2023-03-03T07:05:51;93789.31;;;3.35;100.00
10518;BME280;5307;42.548;22.968;2023-03-03T07:08:20;93794.69;;;3.39;100.00
10518;BME280;5307;42.548;22.968;2023-03-03T07:10:49;93798.00;;;3.53;100.00
10518;BME280;5307;42.548;22.968;2023-03-03T07:13:19;93794.31;;;3.37;100.00
10518;BME280;5307;42.548;22.968;2023-03-03T07:15:47;93798.25;;;3.28;100.00
10518;BME280;5307;42.548;22.968;2023-03-03T07:18:36;93794.53;;;3.49;100.00
10518;BME280;5307;42.548;22.968;2023-03-03T07:21:24;93792.19;;;3.55;100.00
10518;BME280;5307;42.548;22.968;2023-03-03T07:23:52;93801.84;;;5.14;100.00
10518;BME280;5307;42.548;22.968;2023-03-03T07:26:20;93803.72;;;3.90;100.00
10518;BME280;5307;42.548;22.968;2023-03-03T07:28:53;93791.25;;;3.69;100.00
10518;BME280;5307;42.548;22.968;2023-03-03T07:31:29;93796.06;;;3.54;100.00
10518;BME280;5307;42.548;22.968;2023-03-03T07:33:59;93793.53;;;4.78;100.00
10518;BME280;5307;42.548;22.968;2023-03-03T07:36:28;93793.91;;;4.30;100.00
10518;BME280;5307;42.548;22.968;2023-03-03T07:38:58;93787.28;;;3.77;100.00
10518;BME280;5307;42.548;22.968;2023-03-03T07:41:26;93782.56;;;3.84;100.00
10518;BME280;5307;42.548;22.968;2023-03-03T07:43:55;93786.34;;;3.91;100.00
10518;BME280;5307;42.548;22.968;2023-03-03T07:46:29;93775.34;;;3.74;100.00
10518;BME280;5307;42.548;22.968;2023-03-03T07:48:58;93789.63;;;3.75;100.00
10518;BME280;5307;42.548;22.968;2023-03-03T07:51:27;93791.50;;;3.78;100.00
10518;BME280;5307;42.548;22.968;2023-03-03T07:54:13;93789.91;;;3.50;100.00
10518;BME280;5307;42.548;22.968;2023-03-03T07:56:43;93788.72;;;3.54;100.00
10518;BME280;5307;42.548;22.968;2023-03-03T07:59:17;93788.78;;;3.81;100.00
10518;BME280;5307;42.548;22.968;2023-03-03T08:01:50;93782.69;;;3.74;100.00
10518;BME280;5307;42.548;22.968;2023-03-03T08:04:22;93772.47;;;3.88;100.00
10518;BME280;5307;42.548;22.968;2023-03-03T08:06:51;93779.72;;;4.22;100.00
10518;BME280;5307;42.548;22.968;2023-03-03T08:09:30;93787.69;;;4.06;100.00
10518;BME280;5307;42.548;22.968;2023-03-03T08:12:00;93783.03;;;4.06;100.00
10518;BME280;5307;42.548;22.968;2023-03-03T08:14:29;93793.06;;;4.09;100.00
10518;BME280;5307;42.548;22.968;2023-03-03T08:16:57;93785.94;;;3.92;100.00
10518;BME280;5307;42.548;22.968;2023-03-03T08:19:43;93770.81;;;3.68;100.00
10518;BME280;5307;42.548;22.968;2023-03-03T08:22:14;93783.50;;;3.71;100.00
10518;BME280;5307;42.548;22.968;2023-03-03T08:24:41;93780.34;;;3.76;100.00
10518;BME280;5307;42.548;22.968;2023-03-03T08:27:08;93779.75;;;3.92;100.00
10518;BME280;5307;42.548;22.968;2023-03-03T08:29:35;93777.75;;;3.99;100.00
10518;BME280;5307;42.548;22.968;2023-03-03T08:32:02;93775.84;;;3.96;100.00
10518;BME280;5307;42.548;22.968;2023-03-03T08:34:30;93777.22;;;3.81;100.00
10518;BME280;5307;42.548;22.968;2023-03-03T08:36:59;93758.66;;;3.83;100.00
10518;BME280;5307;42.548;22.968;2023-03-03T08:39:25;93770.25;;;3.80;100.00
10518;BME280;5307;42.548;22.968;2023-03-03T08:41:52;93772.06;;;3.90;100.00
10518;BME280;5307;42.548;22.968;2023-03-03T08:44:19;93774.41;;;3.88;100.00
10518;BME280;5307;42.548;22.968;2023-03-03T08:46:46;93777.97;;;3.81;100.00
10518;BME280;5307;42.548;22.968;2023-03-03T08:49:13;93774.34;;;3.95;100.00
10518;BME280;5307;42.548;22.968;2023-03-03T08:51:40;93777.34;;;4.01;100.00
10518;BME280;5307;42.548;22.968;2023-03-03T08:54:08;93776.56;;;4.00;100.00
10518;BME280;5307;42.548;22.968;2023-03-03T08:56:35;93779.69;;;4.26;100.00
10518;BME280;5307;42.548;22.968;2023-03-03T08:59:01;93774.91;;;4.10;100.00
10518;BME280;5307;42.548;22.968;2023-03-03T09:01:28;93775.19;;;4.15;100.00
10518;BME280;5307;42.548;22.968;2023-03-03T09:03:55;93779.97;;;4.31;100.00
10518;BME280;5307;42.548;22.968;2023-03-03T09:06:22;93775.97;;;4.16;100.00
10518;BME280;5307;42.548;22.968;2023-03-03T09:08:49;93777.75;;;3.99;100.00
10518;BME280;5307;42.548;22.968;2023-03-03T09:11:22;93784.19;;;4.09;100.00
10518;BME280;5307;42.548;22.968;2023-03-03T09:13:51;93781.72;;;4.45;100.00
10518;BME280;5307;42.548;22.968;2023-03-03T09:16:19;93781.38;;;4.16;100.00
10518;BME280;5307;42.548;22.968;2023-03-03T09:18:49;93782.94;;;4.13;100.00
10518;BME280;5307;42.548;22.968;2023-03-03T09:21:21;93782.13;;;4.16;100.00
10518;BME280;5307;42.548;22.968;2023-03-03T09:23:52;93780.50;;;4.23;100.00
10518;BME280;5307;42.548;22.968;2023-03-03T09:26:27;93777.97;;;4.39;100.00
10518;BME280;5307;42.548;22.968;2023-03-03T09:28:58;93780.38;;;4.57;100.00
10518;BME280;5307;42.548;22.968;2023-03-03T09:31:31;93775.66;;;4.61;100.00
10518;BME280;5307;42.548;22.968;2023-03-03T09:34:14;93781.84;;;4.61;100.00
10518;BME280;5307;42.548;22.968;2023-03-03T09:36:41;93774.78;;;4.44;100.00
10518;BME280;5307;42.548;22.968;2023-03-03T09:39:15;93784.13;;;4.39;100.00
10518;BME280;5307;42.548;22.968;2023-03-03T09:45:05;93787.06;;;4.22;100.00
10518;BME280;5307;42.548;22.968;2023-03-03T09:47:54;93784.13;;;4.39;100.00
10518;BME280;5307;42.548;22.968;2023-03-03T09:50:33;93785.50;;;4.51;100.00
10518;BME280;5307;42.548;22.968;2023-03-03T09:53:14;93774.53;;;4.35;100.00
10518;BME280;5307;42.548;22.968;2023-03-03T09:55:50;93783.78;;;4.61;100.00
10518;BME280;5307;42.548;22.968;2023-03-03T09:58:40;93787.56;;;4.67;100.00
10518;BME280;5307;42.548;22.968;2023-03-03T10:04:13;93783.69;;;4.68;100.00
10518;BME280;5307;42.548;22.968;2023-03-03T10:06:44;93786.91;;;4.59;100.00
10518;BME280;5307;42.548;22.968;2023-03-03T10:09:40;93773.69;;;4.65;100.00
10518;BME280;5307;42.548;22.968;2023-03-03T10:12:15;93775.59;;;4.64;100.00
10518;BME280;5307;42.548;22.968;2023-03-03T10:15:03;93779.69;;;4.76;100.00
10518;BME280;5307;42.548;22.968;2023-03-03T10:17:46;93784.13;;;4.63;100.00
10518;BME280;5307;42.548;22.968;2023-03-03T10:20:26;93777.91;;;4.42;100.00
10518;BME280;5307;42.548;22.968;2023-03-03T10:23:02;93762.91;;;4.85;100.00
10518;BME280;5307;42.548;22.968;2023-03-03T10:25:38;93773.16;;;4.73;100.00
10518;BME280;5307;42.548;22.968;2023-03-03T10:31:18;93762.97;;;4.58;100.00
10518;BME280;5307;42.548;22.968;2023-03-03T10:33:56;93764.34;;;4.69;100.00
10518;BME280;5307;42.548;22.968;2023-03-03T10:36:33;93773.16;;;4.73;100.00
10518;BME280;5307;42.548;22.968;2023-03-03T10:39:17;93766.84;;;4.57;100.00
10518;BME280;5307;42.548;22.968;2023-03-03T10:41:57;93768.09;;;4.52;100.00
10518;BME280;5307;42.548;22.968;2023-03-03T10:44:37;93749.75;;;4.63;100.00
10518;BME280;5307;42.548;22.968;2023-03-03T10:47:24;93758.34;;;4.82;100.00
10518;BME280;5307;42.548;22.968;2023-03-03T10:50:02;93767.16;;;4.62;100.00
10518;BME280;5307;42.548;22.968;2023-03-03T10:52:43;93767.91;;;4.63;100.00
10518;BME280;5307;42.548;22.968;2023-03-03T10:55:19;93762.22;;;4.57;100.00
10518;BME280;5307;42.548;22.968;2023-03-03T10:57:56;93756.47;;;4.55;100.00
10518;BME280;5307;42.548;22.968;2023-03-03T11:00:30;93751.75;;;4.59;100.00
10518;BME280;5307;42.548;22.968;2023-03-03T11:06:05;93759.84;;;4.59;100.00
10518;BME280;5307;42.548;22.968;2023-03-03T11:08:40;93745.50;;;4.86;100.00
10518;BME280;5307;42.548;22.968;2023-03-03T11:11:14;93744.09;;;4.77;100.00
10518;BME280;5307;42.548;22.968;2023-03-03T11:13:46;93735.22;;;4.77;100.00
10518;BME280;5307;42.548;22.968;2023-03-03T11:16:44;93737.53;;;4.79;100.00
10518;BME280;5307;42.548;22.968;2023-03-03T11:19:45;93734.34;;;4.84;100.00
10518;BME280;5307;42.548;22.968;2023-03-03T11:22:26;93740.09;;;4.86;100.00
10518;BME280;5307;42.548;22.968;2023-03-03T11:25:04;93728.94;;;4.84;100.00
10518;BME280;5307;42.548;22.968;2023-03-03T11:28:10;93738.75;;;5.17;100.00
10518;BME280;5307;42.548;22.968;2023-03-03T11:30:48;93735.09;;;5.07;100.00
10518;BME280;5307;42.548;22.968;2023-03-03T11:33:21;93732.50;;;5.20;100.00
10518;BME280;5307;42.548;22.968;2023-03-03T11:35:54;93727.84;;;5.01;100.00
10518;BME280;5307;42.548;22.968;2023-03-03T11:38:41;93724.91;;;4.92;100.00
10518;BME280;5307;42.548;22.968;2023-03-03T11:41:17;93723.53;;;5.03;100.00
10518;BME280;5307;42.548;22.968;2023-03-03T11:43:51;93712.78;;;5.00;100.00
10518;BME280;5307;42.548;22.968;2023-03-03T11:46:22;93727.25;;;5.13;100.00
10518;BME280;5307;42.548;22.968;2023-03-03T11:48:57;93714.72;;;4.80;100.00
10518;BME280;5307;42.548;22.968;2023-03-03T11:51:33;93720.72;;;5.30;100.00
10518;BME280;5307;42.548;22.968;2023-03-03T11:54:09;93706.47;;;5.06;100.00
10518;BME280;5307;42.548;22.968;2023-03-03T11:56:42;93715.84;;;5.02;100.00
10518;BME280;5307;42.548;22.968;2023-03-03T11:59:20;93704.34;;;5.38;100.00
10518;BME280;5307;42.548;22.968;2023-03-03T12:01:56;93707.53;;;5.32;100.00
10518;BME280;5307;42.548;22.968;2023-03-03T12:04:27;93703.72;;;5.50;100.00
10518;BME280;5307;42.548;22.968;2023-03-03T12:07:16;93719.81;;;5.57;100.00
10518;BME280;5307;42.548;22.968;2023-03-03T12:09:58;93703.53;;;5.21;100.00
10518;BME280;5307;42.548;22.968;2023-03-03T12:12:31;93712.53;;;5.54;100.00
10518;BME280;5307;42.548;22.968;2023-03-03T12:15:07;93716.72;;;5.75;100.00
10518;BME280;5307;42.548;22.968;2023-03-03T12:20:46;93704.94;;;5.65;100.00
10518;BME280;5307;42.548;22.968;2023-03-03T12:23:38;93710.66;;;5.51;100.00
10518;BME280;5307;42.548;22.968;2023-03-03T12:26:12;93711.75;;;5.53;100.00
10518;BME280;5307;42.548;22.968;2023-03-03T12:28:47;93706.94;;;5.61;100.00
10518;BME280;5307;42.548;22.968;2023-03-03T12:31:22;93707.16;;;5.70;100.00
10518;BME280;5307;42.548;22.968;2023-03-03T12:33:53;93700.94;;;5.53;100.00
10518;BME280;5307;42.548;22.968;2023-03-03T12:39:40;93696.75;;;5.69;100.00
10518;BME280;5307;42.548;22.968;2023-03-03T12:42:27;93703.59;;;5.73;100.00
10518;BME280;5307;42.548;22.968;2023-03-03T12:45:01;93706.91;;;5.64;100.00
10518;BME280;5307;42.548;22.968;2023-03-03T12:47:36;93692.38;;;5.55;100.00
10518;BME280;5307;42.548;22.968;2023-03-03T12:50:18;93695.78;;;5.59;100.00
10518;BME280;5307;42.548;22.968;2023-03-03T12:52:55;93689.41;;;5.85;100.00
10518;BME280;5307;42.548;22.968;2023-03-03T12:55:35;93697.44;;;5.92;100.00
10518;BME280;5307;42.548;22.968;2023-03-03T12:58:11;93689.75;;;5.87;100.00
10518;BME280;5307;42.548;22.968;2023-03-03T13:00:48;93691.69;;;5.87;100.00
10518;BME280;5307;42.548;22.968;2023-03-03T13:03:31;93686.63;;;5.89;100.00
10518;BME280;5307;42.548;22.968;2023-03-03T13:06:06;93701.09;;;5.82;100.00
10518;BME280;5307;42.548;22.968;2023-03-03T13:08:47;93684.75;;;5.86;100.00
10518;BME280;5307;42.548;22.968;2023-03-03T13:11:38;93687.22;;;5.80;100.00
10518;BME280;5307;42.548;22.968;2023-03-03T13:14:20;93692.00;;;5.73;100.00
10518;BME280;5307;42.548;22.968;2023-03-03T13:17:02;93686.06;;;5.98;100.00
10518;BME280;5307;42.548;22.968;2023-03-03T13:19:35;93688.44;;;5.95;100.00
10518;BME280;5307;42.548;22.968;2023-03-03T13:22:08;93684.88;;;5.99;100.00
10518;BME280;5307;42.548;22.968;2023-03-03T13:24:38;93686.41;;;6.00;100.00
10518;BME280;5307;42.548;22.968;2023-03-03T13:27:13;93689.97;;;5.97;100.00
10518;BME280;5307;42.548;22.968;2023-03-03T13:29:52;93679.13;;;5.97;100.00
10518;BME280;5307;42.548;22.968;2023-03-03T13:32:23;93678.03;;;5.74;100.00
10518;BME280;5307;42.548;22.968;2023-03-03T13:34:57;93684.31;;;6.07;100.00
10518;BME280;5307;42.548;22.968;2023-03-03T13:37:30;93687.69;;;5.95;100.00
10518;BME280;5307;42.548;22.968;2023-03-03T13:40:00;93687.44;;;6.06;100.00
10518;BME280;5307;42.548;22.968;2023-03-03T13:42:33;93687.59;;;5.99;100.00